METAR Podaci o vazduhoplovstvu     LIEE Cagliari Elmas Airport
Temperatura
4°C Temperatura
4°C Tačka Rose
100% Vlaga



Vetar
8 KM/S
5 MPS
2 M/S
4 Čvorovi



360°
Sever
Trenutna situacija

Delimično oblačno Delimično oblačno
Vazdušni pritisak 1027.92 (hPa) - 30.35 (inHg)
Vidljivost 6.2 (Milje) - 10 (km)
Aerodrom
Aerodromski kod. LIEE

Lokacija: Cagliari Elmas Airport
Udaljenost: 14 (km)

Metar:
LIEE 280750Z 36004KT 9999 FEW040 04/04 Q1028

Vreme: 28-01-2022 08:50 CET